sensor_id;sensor_type;location;lat;lon;timestamp;P1;durP1;ratioP1;P2;durP2;ratioP2
13733;SDS011;43298;52.560;13.508;2024-02-14T00:01:06;1.33;;;1.33;;
13733;SDS011;43298;52.560;13.508;2024-02-14T00:03:35;1.20;;;1.20;;
13733;SDS011;43298;52.560;13.508;2024-02-14T00:06:03;1.23;;;1.23;;
13733;SDS011;43298;52.560;13.508;2024-02-14T00:08:30;1.70;;;1.60;;
13733;SDS011;43298;52.560;13.508;2024-02-14T00:10:56;1.30;;;1.30;;
13733;SDS011;43298;52.560;13.508;2024-02-14T00:13:22;1.40;;;1.40;;
13733;SDS011;43298;52.560;13.508;2024-02-14T00:15:48;1.25;;;1.25;;
13733;SDS011;43298;52.560;13.508;2024-02-14T00:18:14;1.20;;;1.20;;
13733;SDS011;43298;52.560;13.508;2024-02-14T00:20:40;1.20;;;1.20;;
13733;SDS011;43298;52.560;13.508;2024-02-14T00:23:06;1.27;;;1.27;;
13733;SDS011;43298;52.560;13.508;2024-02-14T00:25:32;1.30;;;1.30;;
13733;SDS011;43298;52.560;13.508;2024-02-14T00:27:58;1.40;;;1.40;;
13733;SDS011;43298;52.560;13.508;2024-02-14T00:30:26;1.30;;;1.30;;
13733;SDS011;43298;52.560;13.508;2024-02-14T00:32:52;1.30;;;1.30;;
13733;SDS011;43298;52.560;13.508;2024-02-14T00:35:17;1.40;;;1.40;;
13733;SDS011;43298;52.560;13.508;2024-02-14T00:37:43;1.27;;;1.27;;
13733;SDS011;43298;52.560;13.508;2024-02-14T00:40:09;1.20;;;1.20;;
13733;SDS011;43298;52.560;13.508;2024-02-14T00:42:36;1.33;;;1.30;;
13733;SDS011;43298;52.560;13.508;2024-02-14T00:45:02;1.40;;;1.40;;
13733;SDS011;43298;52.560;13.508;2024-02-14T00:47:28;1.20;;;1.20;;
13733;SDS011;43298;52.560;13.508;2024-02-14T00:49:54;2.17;;;2.08;;
13733;SDS011;43298;52.560;13.508;2024-02-14T00:52:20;1.50;;;1.50;;
13733;SDS011;43298;52.560;13.508;2024-02-14T00:54:46;1.30;;;1.30;;
13733;SDS011;43298;52.560;13.508;2024-02-14T00:57:12;1.30;;;1.30;;
13733;SDS011;43298;52.560;13.508;2024-02-14T00:59:38;1.27;;;1.27;;
13733;SDS011;43298;52.560;13.508;2024-02-14T01:02:04;1.30;;;1.30;;
13733;SDS011;43298;52.560;13.508;2024-02-14T01:04:30;1.40;;;1.40;;
13733;SDS011;43298;52.560;13.508;2024-02-14T01:06:55;1.30;;;1.30;;
13733;SDS011;43298;52.560;13.508;2024-02-14T01:09:21;1.20;;;1.20;;
13733;SDS011;43298;52.560;13.508;2024-02-14T01:11:47;1.20;;;1.20;;
13733;SDS011;43298;52.560;13.508;2024-02-14T01:14:14;1.60;;;1.50;;
13733;SDS011;43298;52.560;13.508;2024-02-14T01:16:43;1.30;;;1.30;;
13733;SDS011;43298;52.560;13.508;2024-02-14T01:19:10;1.30;;;1.27;;
13733;SDS011;43298;52.560;13.508;2024-02-14T01:21:37;2.00;;;1.58;;
13733;SDS011;43298;52.560;13.508;2024-02-14T01:24:03;1.30;;;1.30;;
13733;SDS011;43298;52.560;13.508;2024-02-14T01:26:33;1.25;;;1.25;;
13733;SDS011;43298;52.560;13.508;2024-02-14T01:28:59;1.55;;;1.45;;
13733;SDS011;43298;52.560;13.508;2024-02-14T01:31:26;1.30;;;1.30;;
13733;SDS011;43298;52.560;13.508;2024-02-14T01:33:52;1.23;;;1.23;;
13733;SDS011;43298;52.560;13.508;2024-02-14T01:36:18;1.40;;;1.40;;
13733;SDS011;43298;52.560;13.508;2024-02-14T01:38:44;1.60;;;1.52;;
13733;SDS011;43298;52.560;13.508;2024-02-14T01:41:10;1.30;;;1.30;;
13733;SDS011;43298;52.560;13.508;2024-02-14T01:43:36;1.30;;;1.30;;
13733;SDS011;43298;52.560;13.508;2024-02-14T01:46:05;1.30;;;1.30;;
13733;SDS011;43298;52.560;13.508;2024-02-14T01:48:35;1.30;;;1.30;;
13733;SDS011;43298;52.560;13.508;2024-02-14T01:51:04;1.20;;;1.20;;
13733;SDS011;43298;52.560;13.508;2024-02-14T01:53:33;1.40;;;1.40;;
13733;SDS011;43298;52.560;13.508;2024-02-14T01:56:02;1.40;;;1.40;;
13733;SDS011;43298;52.560;13.508;2024-02-14T01:58:29;1.10;;;1.10;;
13733;SDS011;43298;52.560;13.508;2024-02-14T02:00:55;1.30;;;1.30;;
13733;SDS011;43298;52.560;13.508;2024-02-14T02:03:25;1.33;;;1.33;;
13733;SDS011;43298;52.560;13.508;2024-02-14T02:05:51;1.20;;;1.20;;
13733;SDS011;43298;52.560;13.508;2024-02-14T02:08:19;3.58;;;3.35;;
13733;SDS011;43298;52.560;13.508;2024-02-14T02:10:45;1.35;;;1.35;;
13733;SDS011;43298;52.560;13.508;2024-02-14T02:13:11;1.67;;;1.58;;
13733;SDS011;43298;52.560;13.508;2024-02-14T02:15:37;1.30;;;1.30;;
13733;SDS011;43298;52.560;13.508;2024-02-14T02:18:03;1.30;;;1.30;;
13733;SDS011;43298;52.560;13.508;2024-02-14T02:20:31;1.20;;;1.20;;
13733;SDS011;43298;52.560;13.508;2024-02-14T02:22:57;1.20;;;1.20;;
13733;SDS011;43298;52.560;13.508;2024-02-14T02:25:24;1.20;;;1.20;;
13733;SDS011;43298;52.560;13.508;2024-02-14T02:27:51;1.15;;;1.15;;
13733;SDS011;43298;52.560;13.508;2024-02-14T02:30:26;1.30;;;1.30;;
13733;SDS011;43298;52.560;13.508;2024-02-14T02:32:52;1.38;;;1.38;;
13733;SDS011;43298;52.560;13.508;2024-02-14T02:35:18;1.65;;;1.45;;
13733;SDS011;43298;52.560;13.508;2024-02-14T02:37:45;1.25;;;1.25;;
13733;SDS011;43298;52.560;13.508;2024-02-14T02:40:14;1.23;;;1.23;;
13733;SDS011;43298;52.560;13.508;2024-02-14T02:42:41;1.17;;;1.17;;
13733;SDS011;43298;52.560;13.508;2024-02-14T02:45:10;1.20;;;1.20;;
13733;SDS011;43298;52.560;13.508;2024-02-14T02:47:36;1.20;;;1.20;;
13733;SDS011;43298;52.560;13.508;2024-02-14T02:50:02;1.20;;;1.20;;
13733;SDS011;43298;52.560;13.508;2024-02-14T02:52:28;1.25;;;1.25;;
13733;SDS011;43298;52.560;13.508;2024-02-14T02:54:56;1.20;;;1.20;;
13733;SDS011;43298;52.560;13.508;2024-02-14T02:57:22;1.23;;;1.23;;
13733;SDS011;43298;52.560;13.508;2024-02-14T02:59:48;1.20;;;1.20;;
13733;SDS011;43298;52.560;13.508;2024-02-14T03:02:16;1.60;;;1.50;;
13733;SDS011;43298;52.560;13.508;2024-02-14T03:04:42;1.10;;;1.10;;
13733;SDS011;43298;52.560;13.508;2024-02-14T03:07:08;1.20;;;1.20;;
13733;SDS011;43298;52.560;13.508;2024-02-14T03:09:34;1.10;;;1.10;;
13733;SDS011;43298;52.560;13.508;2024-02-14T03:12:01;1.38;;;1.38;;
13733;SDS011;43298;52.560;13.508;2024-02-14T03:14:31;1.10;;;1.10;;
13733;SDS011;43298;52.560;13.508;2024-02-14T03:17:00;1.30;;;1.30;;
13733;SDS011;43298;52.560;13.508;2024-02-14T03:19:30;1.10;;;1.10;;
13733;SDS011;43298;52.560;13.508;2024-02-14T03:21:58;1.20;;;1.20;;
13733;SDS011;43298;52.560;13.508;2024-02-14T03:24:24;1.13;;;1.13;;
13733;SDS011;43298;52.560;13.508;2024-02-14T03:26:50;1.10;;;1.10;;
13733;SDS011;43298;52.560;13.508;2024-02-14T03:29:18;1.10;;;1.10;;
13733;SDS011;43298;52.560;13.508;2024-02-14T03:31:45;1.10;;;1.10;;
13733;SDS011;43298;52.560;13.508;2024-02-14T03:34:12;1.20;;;1.20;;
13733;SDS011;43298;52.560;13.508;2024-02-14T03:36:38;1.20;;;1.20;;
13733;SDS011;43298;52.560;13.508;2024-02-14T03:39:04;1.10;;;1.10;;
13733;SDS011;43298;52.560;13.508;2024-02-14T03:41:31;1.20;;;1.20;;
13733;SDS011;43298;52.560;13.508;2024-02-14T03:43:58;1.25;;;1.25;;
13733;SDS011;43298;52.560;13.508;2024-02-14T03:46:29;1.20;;;1.20;;
13733;SDS011;43298;52.560;13.508;2024-02-14T03:48:55;1.30;;;1.30;;
13733;SDS011;43298;52.560;13.508;2024-02-14T03:51:24;1.20;;;1.20;;
13733;SDS011;43298;52.560;13.508;2024-02-14T03:53:50;2.55;;;2.42;;
13733;SDS011;43298;52.560;13.508;2024-02-14T03:56:16;1.35;;;1.35;;
13733;SDS011;43298;52.560;13.508;2024-02-14T03:58:42;1.20;;;1.20;;
13733;SDS011;43298;52.560;13.508;2024-02-14T04:01:08;1.10;;;1.10;;
13733;SDS011;43298;52.560;13.508;2024-02-14T04:03:34;1.05;;;1.05;;
13733;SDS011;43298;52.560;13.508;2024-02-14T04:06:00;1.10;;;1.10;;
13733;SDS011;43298;52.560;13.508;2024-02-14T04:08:26;1.10;;;1.10;;
13733;SDS011;43298;52.560;13.508;2024-02-14T04:10:52;2.17;;;2.05;;
13733;SDS011;43298;52.560;13.508;2024-02-14T04:13:21;1.10;;;1.10;;
13733;SDS011;43298;52.560;13.508;2024-02-14T04:15:47;1.10;;;1.10;;
13733;SDS011;43298;52.560;13.508;2024-02-14T04:18:13;1.17;;;1.17;;
13733;SDS011;43298;52.560;13.508;2024-02-14T04:20:43;2.20;;;2.08;;
13733;SDS011;43298;52.560;13.508;2024-02-14T04:23:09;1.30;;;1.30;;
13733;SDS011;43298;52.560;13.508;2024-02-14T04:25:35;1.10;;;1.10;;
13733;SDS011;43298;52.560;13.508;2024-02-14T04:28:05;1.15;;;1.15;;
13733;SDS011;43298;52.560;13.508;2024-02-14T04:30:31;1.23;;;1.20;;
13733;SDS011;43298;52.560;13.508;2024-02-14T04:32:57;1.10;;;1.10;;
13733;SDS011;43298;52.560;13.508;2024-02-14T04:35:22;1.48;;;1.38;;
13733;SDS011;43298;52.560;13.508;2024-02-14T04:37:48;1.20;;;1.20;;
13733;SDS011;43298;52.560;13.508;2024-02-14T04:40:14;1.10;;;1.10;;
13733;SDS011;43298;52.560;13.508;2024-02-14T04:42:41;1.10;;;1.10;;
13733;SDS011;43298;52.560;13.508;2024-02-14T04:45:07;1.10;;;1.10;;
13733;SDS011;43298;52.560;13.508;2024-02-14T04:47:33;1.10;;;1.10;;
13733;SDS011;43298;52.560;13.508;2024-02-14T04:49:59;1.35;;;1.35;;
13733;SDS011;43298;52.560;13.508;2024-02-14T04:52:28;1.10;;;1.10;;
13733;SDS011;43298;52.560;13.508;2024-02-14T04:54:55;1.13;;;1.13;;
13733;SDS011;43298;52.560;13.508;2024-02-14T04:57:21;1.15;;;1.15;;
13733;SDS011;43298;52.560;13.508;2024-02-14T04:59:48;1.00;;;1.00;;
13733;SDS011;43298;52.560;13.508;2024-02-14T05:02:13;1.02;;;1.02;;
13733;SDS011;43298;52.560;13.508;2024-02-14T05:04:40;1.00;;;1.00;;
13733;SDS011;43298;52.560;13.508;2024-02-14T05:07:06;1.52;;;1.42;;
13733;SDS011;43298;52.560;13.508;2024-02-14T05:09:32;1.27;;;1.27;;
13733;SDS011;43298;52.560;13.508;2024-02-14T05:11:58;1.05;;;1.05;;
13733;SDS011;43298;52.560;13.508;2024-02-14T05:14:24;1.10;;;1.10;;
13733;SDS011;43298;52.560;13.508;2024-02-14T05:16:51;1.10;;;1.10;;
13733;SDS011;43298;52.560;13.508;2024-02-14T05:19:17;1.00;;;1.00;;
13733;SDS011;43298;52.560;13.508;2024-02-14T05:21:42;1.40;;;1.30;;
13733;SDS011;43298;52.560;13.508;2024-02-14T05:24:08;1.00;;;1.00;;
13733;SDS011;43298;52.560;13.508;2024-02-14T05:26:34;1.77;;;1.67;;
13733;SDS011;43298;52.560;13.508;2024-02-14T05:29:00;1.00;;;1.00;;
13733;SDS011;43298;52.560;13.508;2024-02-14T05:31:28;1.00;;;1.00;;
13733;SDS011;43298;52.560;13.508;2024-02-14T05:34:11;1.30;;;1.30;;
13733;SDS011;43298;52.560;13.508;2024-02-14T05:36:37;1.20;;;1.20;;
13733;SDS011;43298;52.560;13.508;2024-02-14T05:39:03;1.08;;;1.08;;
13733;SDS011;43298;52.560;13.508;2024-02-14T05:41:32;1.02;;;1.02;;
13733;SDS011;43298;52.560;13.508;2024-02-14T05:43:59;0.90;;;0.90;;
13733;SDS011;43298;52.560;13.508;2024-02-14T05:46:25;0.90;;;0.90;;
13733;SDS011;43298;52.560;13.508;2024-02-14T05:48:52;0.90;;;0.90;;
13733;SDS011;43298;52.560;13.508;2024-02-14T05:51:18;1.00;;;1.00;;
13733;SDS011;43298;52.560;13.508;2024-02-14T05:53:44;1.00;;;1.00;;
13733;SDS011;43298;52.560;13.508;2024-02-14T05:56:09;1.27;;;1.27;;
13733;SDS011;43298;52.560;13.508;2024-02-14T05:58:36;0.90;;;0.90;;
13733;SDS011;43298;52.560;13.508;2024-02-14T06:01:02;0.95;;;0.95;;
13733;SDS011;43298;52.560;13.508;2024-02-14T06:03:28;0.98;;;0.98;;
13733;SDS011;43298;52.560;13.508;2024-02-14T06:05:54;1.10;;;1.10;;
13733;SDS011;43298;52.560;13.508;2024-02-14T06:08:20;1.00;;;1.00;;
13733;SDS011;43298;52.560;13.508;2024-02-14T06:10:48;1.00;;;1.00;;
13733;SDS011;43298;52.560;13.508;2024-02-14T06:13:14;1.60;;;1.50;;
13733;SDS011;43298;52.560;13.508;2024-02-14T06:15:40;1.65;;;1.55;;
13733;SDS011;43298;52.560;13.508;2024-02-14T06:18:06;0.95;;;0.95;;
13733;SDS011;43298;52.560;13.508;2024-02-14T06:20:32;0.85;;;0.85;;
13733;SDS011;43298;52.560;13.508;2024-02-14T06:22:58;0.80;;;0.80;;
13733;SDS011;43298;52.560;13.508;2024-02-14T06:25:23;1.17;;;1.15;;
13733;SDS011;43298;52.560;13.508;2024-02-14T06:27:49;1.10;;;1.10;;
13733;SDS011;43298;52.560;13.508;2024-02-14T06:30:15;0.90;;;0.90;;
13733;SDS011;43298;52.560;13.508;2024-02-14T06:32:42;1.10;;;1.10;;
13733;SDS011;43298;52.560;13.508;2024-02-14T06:35:08;1.10;;;1.10;;
13733;SDS011;43298;52.560;13.508;2024-02-14T06:37:33;0.95;;;0.95;;
13733;SDS011;43298;52.560;13.508;2024-02-14T06:39:59;0.90;;;0.90;;
13733;SDS011;43298;52.560;13.508;2024-02-14T06:42:25;0.95;;;0.95;;
13733;SDS011;43298;52.560;13.508;2024-02-14T06:44:51;0.90;;;0.90;;
13733;SDS011;43298;52.560;13.508;2024-02-14T06:47:17;1.00;;;1.00;;
13733;SDS011;43298;52.560;13.508;2024-02-14T06:49:43;0.80;;;0.80;;
13733;SDS011;43298;52.560;13.508;2024-02-14T06:52:09;1.13;;;1.13;;
13733;SDS011;43298;52.560;13.508;2024-02-14T06:54:35;2.22;;;1.25;;
13733;SDS011;43298;52.560;13.508;2024-02-14T06:57:00;0.90;;;0.90;;
13733;SDS011;43298;52.560;13.508;2024-02-14T06:59:26;1.00;;;1.00;;
13733;SDS011;43298;52.560;13.508;2024-02-14T07:01:52;0.98;;;0.98;;
13733;SDS011;43298;52.560;13.508;2024-02-14T07:04:20;1.65;;;1.55;;
13733;SDS011;43298;52.560;13.508;2024-02-14T07:06:51;1.10;;;1.10;;
13733;SDS011;43298;52.560;13.508;2024-02-14T07:09:18;0.80;;;0.80;;
13733;SDS011;43298;52.560;13.508;2024-02-14T07:11:44;1.33;;;1.23;;
13733;SDS011;43298;52.560;13.508;2024-02-14T07:14:11;1.05;;;1.02;;
13733;SDS011;43298;52.560;13.508;2024-02-14T07:16:37;1.35;;;1.25;;
13733;SDS011;43298;52.560;13.508;2024-02-14T07:19:03;0.80;;;0.80;;
13733;SDS011;43298;52.560;13.508;2024-02-14T07:21:28;0.90;;;0.90;;
13733;SDS011;43298;52.560;13.508;2024-02-14T07:23:54;0.75;;;0.75;;
13733;SDS011;43298;52.560;13.508;2024-02-14T07:26:20;0.80;;;0.80;;
13733;SDS011;43298;52.560;13.508;2024-02-14T07:28:46;1.10;;;1.08;;
13733;SDS011;43298;52.560;13.508;2024-02-14T07:31:12;1.10;;;1.10;;
13733;SDS011;43298;52.560;13.508;2024-02-14T07:33:38;0.88;;;0.88;;
13733;SDS011;43298;52.560;13.508;2024-02-14T07:36:04;0.90;;;0.90;;
13733;SDS011;43298;52.560;13.508;2024-02-14T07:38:30;1.23;;;1.13;;
13733;SDS011;43298;52.560;13.508;2024-02-14T07:40:56;0.70;;;0.70;;
13733;SDS011;43298;52.560;13.508;2024-02-14T07:43:21;0.98;;;0.88;;
13733;SDS011;43298;52.560;13.508;2024-02-14T07:45:47;2.38;;;1.52;;
13733;SDS011;43298;52.560;13.508;2024-02-14T07:48:13;1.95;;;1.70;;
13733;SDS011;43298;52.560;13.508;2024-02-14T07:50:39;0.70;;;0.70;;
13733;SDS011;43298;52.560;13.508;2024-02-14T07:53:05;0.70;;;0.70;;
13733;SDS011;43298;52.560;13.508;2024-02-14T07:55:31;0.60;;;0.60;;
13733;SDS011;43298;52.560;13.508;2024-02-14T07:57:57;1.17;;;1.10;;
13733;SDS011;43298;52.560;13.508;2024-02-14T08:00:24;0.60;;;0.60;;
13733;SDS011;43298;52.560;13.508;2024-02-14T08:02:50;1.75;;;1.65;;
13733;SDS011;43298;52.560;13.508;2024-02-14T08:05:17;0.70;;;0.70;;
13733;SDS011;43298;52.560;13.508;2024-02-14T08:07:44;0.98;;;0.95;;
13733;SDS011;43298;52.560;13.508;2024-02-14T08:10:11;0.60;;;0.60;;
13733;SDS011;43298;52.560;13.508;2024-02-14T08:12:37;0.70;;;0.70;;
13733;SDS011;43298;52.560;13.508;2024-02-14T08:15:07;0.60;;;0.60;;
13733;SDS011;43298;52.560;13.508;2024-02-14T08:17:33;0.68;;;0.68;;
13733;SDS011;43298;52.560;13.508;2024-02-14T08:20:00;0.60;;;0.60;;
13733;SDS011;43298;52.560;13.508;2024-02-14T08:22:28;0.80;;;0.80;;
13733;SDS011;43298;52.560;13.508;2024-02-14T08:24:55;0.60;;;0.60;;
13733;SDS011;43298;52.560;13.508;2024-02-14T08:27:21;0.77;;;0.77;;
13733;SDS011;43298;52.560;13.508;2024-02-14T08:29:47;0.70;;;0.70;;
13733;SDS011;43298;52.560;13.508;2024-02-14T08:32:13;0.95;;;0.95;;
13733;SDS011;43298;52.560;13.508;2024-02-14T08:34:38;2.88;;;1.92;;
13733;SDS011;43298;52.560;13.508;2024-02-14T08:37:04;1.58;;;1.48;;
13733;SDS011;43298;52.560;13.508;2024-02-14T08:39:31;1.10;;;1.10;;
13733;SDS011;43298;52.560;13.508;2024-02-14T08:41:57;0.55;;;0.55;;
13733;SDS011;43298;52.560;13.508;2024-02-14T08:44:23;0.63;;;0.63;;
13733;SDS011;43298;52.560;13.508;2024-02-14T08:46:49;0.60;;;0.60;;
13733;SDS011;43298;52.560;13.508;2024-02-14T08:49:15;0.60;;;0.60;;
13733;SDS011;43298;52.560;13.508;2024-02-14T08:51:41;0.95;;;0.95;;
13733;SDS011;43298;52.560;13.508;2024-02-14T08:54:09;0.60;;;0.60;;
13733;SDS011;43298;52.560;13.508;2024-02-14T08:56:35;0.77;;;0.70;;
13733;SDS011;43298;52.560;13.508;2024-02-14T08:59:02;0.60;;;0.60;;
13733;SDS011;43298;52.560;13.508;2024-02-14T09:01:31;0.63;;;0.63;;
13733;SDS011;43298;52.560;13.508;2024-02-14T09:03:57;0.60;;;0.60;;
13733;SDS011;43298;52.560;13.508;2024-02-14T09:06:24;1.13;;;1.13;;
13733;SDS011;43298;52.560;13.508;2024-02-14T09:08:51;0.63;;;0.63;;
13733;SDS011;43298;52.560;13.508;2024-02-14T09:11:18;0.50;;;0.50;;
13733;SDS011;43298;52.560;13.508;2024-02-14T09:13:44;0.60;;;0.60;;
13733;SDS011;43298;52.560;13.508;2024-02-14T09:16:12;0.60;;;0.60;;
13733;SDS011;43298;52.560;13.508;2024-02-14T09:18:40;0.60;;;0.60;;
13733;SDS011;43298;52.560;13.508;2024-02-14T09:21:06;0.70;;;0.70;;
13733;SDS011;43298;52.560;13.508;2024-02-14T09:23:32;0.50;;;0.50;;
13733;SDS011;43298;52.560;13.508;2024-02-14T09:25:58;0.60;;;0.60;;
13733;SDS011;43298;52.560;13.508;2024-02-14T09:28:24;0.93;;;0.93;;
13733;SDS011;43298;52.560;13.508;2024-02-14T09:30:50;0.70;;;0.70;;
13733;SDS011;43298;52.560;13.508;2024-02-14T09:33:16;0.50;;;0.50;;
13733;SDS011;43298;52.560;13.508;2024-02-14T09:35:42;0.50;;;0.50;;
13733;SDS011;43298;52.560;13.508;2024-02-14T09:38:12;0.70;;;0.70;;
13733;SDS011;43298;52.560;13.508;2024-02-14T09:40:40;0.52;;;0.52;;
13733;SDS011;43298;52.560;13.508;2024-02-14T09:43:08;0.50;;;0.50;;
13733;SDS011;43298;52.560;13.508;2024-02-14T09:45:53;0.60;;;0.60;;
13733;SDS011;43298;52.560;13.508;2024-02-14T09:48:19;0.82;;;0.82;;
13733;SDS011;43298;52.560;13.508;2024-02-14T09:50:48;0.50;;;0.50;;
13733;SDS011;43298;52.560;13.508;2024-02-14T09:53:14;0.60;;;0.60;;
13733;SDS011;43298;52.560;13.508;2024-02-14T09:55:41;0.50;;;0.50;;
13733;SDS011;43298;52.560;13.508;2024-02-14T09:58:07;0.60;;;0.60;;
13733;SDS011;43298;52.560;13.508;2024-02-14T10:00:34;0.50;;;0.50;;
13733;SDS011;43298;52.560;13.508;2024-02-14T10:03:00;2.13;;;1.98;;
13733;SDS011;43298;52.560;13.508;2024-02-14T10:05:26;0.60;;;0.60;;
13733;SDS011;43298;52.560;13.508;2024-02-14T10:07:52;0.50;;;0.50;;
13733;SDS011;43298;52.560;13.508;2024-02-14T10:10:22;0.50;;;0.50;;
13733;SDS011;43298;52.560;13.508;2024-02-14T10:12:49;0.50;;;0.50;;
13733;SDS011;43298;52.560;13.508;2024-02-14T10:15:15;0.60;;;0.60;;
13733;SDS011;43298;52.560;13.508;2024-02-14T10:17:41;0.50;;;0.50;;
13733;SDS011;43298;52.560;13.508;2024-02-14T10:20:08;0.50;;;0.50;;
13733;SDS011;43298;52.560;13.508;2024-02-14T10:22:36;0.60;;;0.60;;
13733;SDS011;43298;52.560;13.508;2024-02-14T10:25:03;0.60;;;0.60;;
13733;SDS011;43298;52.560;13.508;2024-02-14T10:27:37;0.57;;;0.57;;
13733;SDS011;43298;52.560;13.508;2024-02-14T10:30:06;0.70;;;0.70;;
13733;SDS011;43298;52.560;13.508;2024-02-14T10:32:34;0.60;;;0.60;;
13733;SDS011;43298;52.560;13.508;2024-02-14T10:35:05;0.50;;;0.50;;
13733;SDS011;43298;52.560;13.508;2024-02-14T10:37:37;1.50;;;1.40;;
13733;SDS011;43298;52.560;13.508;2024-02-14T10:40:03;0.70;;;0.70;;
13733;SDS011;43298;52.560;13.508;2024-02-14T10:42:32;0.50;;;0.50;;
13733;SDS011;43298;52.560;13.508;2024-02-14T10:44:58;0.93;;;0.77;;
13733;SDS011;43298;52.560;13.508;2024-02-14T10:47:31;0.50;;;0.50;;
13733;SDS011;43298;52.560;13.508;2024-02-14T10:50:04;0.43;;;0.43;;
13733;SDS011;43298;52.560;13.508;2024-02-14T10:52:33;0.50;;;0.50;;
13733;SDS011;43298;52.560;13.508;2024-02-14T10:55:02;0.60;;;0.60;;
13733;SDS011;43298;52.560;13.508;2024-02-14T10:57:30;0.60;;;0.60;;
13733;SDS011;43298;52.560;13.508;2024-02-14T11:00:02;1.17;;;1.17;;
13733;SDS011;43298;52.560;13.508;2024-02-14T11:02:34;0.50;;;0.50;;
13733;SDS011;43298;52.560;13.508;2024-02-14T11:05:02;0.50;;;0.50;;
13733;SDS011;43298;52.560;13.508;2024-02-14T11:07:28;8.90;;;0.82;;
13733;SDS011;43298;52.560;13.508;2024-02-14T11:10:04;0.40;;;0.40;;
13733;SDS011;43298;52.560;13.508;2024-02-14T11:12:34;0.40;;;0.40;;
13733;SDS011;43298;52.560;13.508;2024-02-14T11:15:01;0.47;;;0.47;;
13733;SDS011;43298;52.560;13.508;2024-02-14T11:17:41;0.50;;;0.50;;
13733;SDS011;43298;52.560;13.508;2024-02-14T11:20:17;0.63;;;0.60;;
13733;SDS011;43298;52.560;13.508;2024-02-14T11:23:00;0.40;;;0.40;;
13733;SDS011;43298;52.560;13.508;2024-02-14T11:25:34;0.82;;;0.82;;
13733;SDS011;43298;52.560;13.508;2024-02-14T11:28:16;0.60;;;0.60;;
13733;SDS011;43298;52.560;13.508;2024-02-14T11:30:50;0.43;;;0.43;;
13733;SDS011;43298;52.560;13.508;2024-02-14T11:33:17;0.40;;;0.40;;
13733;SDS011;43298;52.560;13.508;2024-02-14T11:35:46;0.40;;;0.40;;
13733;SDS011;43298;52.560;13.508;2024-02-14T11:38:18;0.50;;;0.50;;
13733;SDS011;43298;52.560;13.508;2024-02-14T11:40:45;0.50;;;0.50;;
13733;SDS011;43298;52.560;13.508;2024-02-14T11:43:11;0.38;;;0.38;;
13733;SDS011;43298;52.560;13.508;2024-02-14T11:45:48;0.95;;;0.95;;
13733;SDS011;43298;52.560;13.508;2024-02-14T11:48:23;0.55;;;0.55;;
13733;SDS011;43298;52.560;13.508;2024-02-14T11:50:49;0.50;;;0.50;;
13733;SDS011;43298;52.560;13.508;2024-02-14T11:53:17;0.50;;;0.50;;
13733;SDS011;43298;52.560;13.508;2024-02-14T11:55:46;0.40;;;0.40;;
13733;SDS011;43298;52.560;13.508;2024-02-14T11:58:20;0.40;;;0.40;;
13733;SDS011;43298;52.560;13.508;2024-02-14T12:00:46;0.40;;;0.40;;
13733;SDS011;43298;52.560;13.508;2024-02-14T12:03:18;0.50;;;0.50;;
13733;SDS011;43298;52.560;13.508;2024-02-14T12:05:47;0.50;;;0.50;;
13733;SDS011;43298;52.560;13.508;2024-02-14T12:08:16;0.52;;;0.52;;
13733;SDS011;43298;52.560;13.508;2024-02-14T12:10:45;0.40;;;0.40;;
13733;SDS011;43298;52.560;13.508;2024-02-14T12:13:15;0.85;;;0.85;;
13733;SDS011;43298;52.560;13.508;2024-02-14T12:15:45;0.43;;;0.43;;
13733;SDS011;43298;52.560;13.508;2024-02-14T12:18:13;0.40;;;0.40;;
13733;SDS011;43298;52.560;13.508;2024-02-14T12:20:39;0.50;;;0.50;;
13733;SDS011;43298;52.560;13.508;2024-02-14T12:23:07;0.40;;;0.40;;
13733;SDS011;43298;52.560;13.508;2024-02-14T12:25:33;0.50;;;0.50;;
13733;SDS011;43298;52.560;13.508;2024-02-14T12:28:07;0.45;;;0.45;;
13733;SDS011;43298;52.560;13.508;2024-02-14T12:30:43;0.50;;;0.50;;
13733;SDS011;43298;52.560;13.508;2024-02-14T12:34:50;0.40;;;0.40;;
13733;SDS011;43298;52.560;13.508;2024-02-14T12:37:15;0.50;;;0.50;;
13733;SDS011;43298;52.560;13.508;2024-02-14T12:39:42;0.50;;;0.50;;
13733;SDS011;43298;52.560;13.508;2024-02-14T12:42:08;0.60;;;0.60;;
13733;SDS011;43298;52.560;13.508;2024-02-14T12:44:34;0.50;;;0.50;;
13733;SDS011;43298;52.560;13.508;2024-02-14T12:46:59;0.30;;;0.30;;
13733;SDS011;43298;52.560;13.508;2024-02-14T12:49:25;0.50;;;0.50;;
13733;SDS011;43298;52.560;13.508;2024-02-14T12:51:51;0.60;;;0.60;;
13733;SDS011;43298;52.560;13.508;2024-02-14T12:54:17;0.50;;;0.50;;
13733;SDS011;43298;52.560;13.508;2024-02-14T12:56:44;0.50;;;0.50;;
13733;SDS011;43298;52.560;13.508;2024-02-14T12:59:11;0.50;;;0.50;;
13733;SDS011;43298;52.560;13.508;2024-02-14T13:01:45;0.50;;;0.50;;
13733;SDS011;43298;52.560;13.508;2024-02-14T13:04:12;0.40;;;0.40;;
13733;SDS011;43298;52.560;13.508;2024-02-14T13:06:41;0.50;;;0.50;;
13733;SDS011;43298;52.560;13.508;2024-02-14T13:09:07;0.43;;;0.43;;
13733;SDS011;43298;52.560;13.508;2024-02-14T13:11:33;0.50;;;0.50;;
13733;SDS011;43298;52.560;13.508;2024-02-14T13:13:59;0.52;;;0.52;;
13733;SDS011;43298;52.560;13.508;2024-02-14T13:16:25;1.17;;;1.08;;
13733;SDS011;43298;52.560;13.508;2024-02-14T13:18:51;0.50;;;0.50;;
13733;SDS011;43298;52.560;13.508;2024-02-14T13:21:18;0.40;;;0.40;;
13733;SDS011;43298;52.560;13.508;2024-02-14T13:23:43;0.47;;;0.47;;
13733;SDS011;43298;52.560;13.508;2024-02-14T13:26:09;0.30;;;0.30;;
13733;SDS011;43298;52.560;13.508;2024-02-14T13:28:35;1.05;;;0.98;;
13733;SDS011;43298;52.560;13.508;2024-02-14T13:31:01;1.67;;;1.58;;
13733;SDS011;43298;52.560;13.508;2024-02-14T13:33:27;0.30;;;0.30;;
13733;SDS011;43298;52.560;13.508;2024-02-14T13:35:53;0.32;;;0.32;;
13733;SDS011;43298;52.560;13.508;2024-02-14T13:38:19;0.30;;;0.30;;
13733;SDS011;43298;52.560;13.508;2024-02-14T13:40:44;0.32;;;0.32;;
13733;SDS011;43298;52.560;13.508;2024-02-14T13:43:10;0.47;;;0.47;;
13733;SDS011;43298;52.560;13.508;2024-02-14T13:45:40;0.40;;;0.40;;
13733;SDS011;43298;52.560;13.508;2024-02-14T13:48:07;0.40;;;0.40;;
13733;SDS011;43298;52.560;13.508;2024-02-14T13:50:34;0.60;;;0.60;;
13733;SDS011;43298;52.560;13.508;2024-02-14T13:53:00;0.50;;;0.50;;
13733;SDS011;43298;52.560;13.508;2024-02-14T13:55:26;0.40;;;0.40;;
13733;SDS011;43298;52.560;13.508;2024-02-14T13:57:51;0.32;;;0.32;;
13733;SDS011;43298;52.560;13.508;2024-02-14T14:00:17;0.85;;;0.85;;
13733;SDS011;43298;52.560;13.508;2024-02-14T14:02:43;0.50;;;0.50;;
13733;SDS011;43298;52.560;13.508;2024-02-14T14:05:09;0.50;;;0.50;;
13733;SDS011;43298;52.560;13.508;2024-02-14T14:07:35;0.70;;;0.70;;
13733;SDS011;43298;52.560;13.508;2024-02-14T14:10:03;0.45;;;0.45;;
13733;SDS011;43298;52.560;13.508;2024-02-14T14:12:30;0.40;;;0.40;;
13733;SDS011;43298;52.560;13.508;2024-02-14T14:14:58;0.55;;;0.55;;
13733;SDS011;43298;52.560;13.508;2024-02-14T14:17:24;0.50;;;0.50;;
13733;SDS011;43298;52.560;13.508;2024-02-14T14:19:51;0.68;;;0.68;;
13733;SDS011;43298;52.560;13.508;2024-02-14T14:22:18;0.40;;;0.40;;
13733;SDS011;43298;52.560;13.508;2024-02-14T14:24:44;0.60;;;0.60;;
13733;SDS011;43298;52.560;13.508;2024-02-14T14:27:10;0.60;;;0.60;;
13733;SDS011;43298;52.560;13.508;2024-02-14T14:29:42;0.40;;;0.40;;
13733;SDS011;43298;52.560;13.508;2024-02-14T14:32:11;0.43;;;0.43;;
13733;SDS011;43298;52.560;13.508;2024-02-14T14:34:37;0.65;;;0.65;;